createdAt,value
2022-07-25T00:01:44.967Z,5.32
2022-07-25T00:04:14.306Z,5.82
2022-07-25T00:06:42.707Z,5.68
2022-07-25T00:09:09.667Z,5.93
2022-07-25T00:11:36.439Z,5.28
2022-07-25T00:14:04.530Z,5.60
2022-07-25T00:16:31.619Z,5.85
2022-07-25T00:18:58.452Z,5.88
2022-07-25T00:21:25.226Z,6.30
2022-07-25T00:23:51.888Z,5.75
2022-07-25T00:26:18.758Z,6.15
2022-07-25T00:28:45.413Z,6.03
2022-07-25T00:31:12.169Z,6.13
2022-07-25T00:33:40.194Z,5.65
2022-07-25T00:36:08.421Z,5.65
2022-07-25T00:38:35.207Z,5.97
2022-07-25T00:41:03.886Z,5.72
2022-07-25T00:43:30.930Z,5.90
2022-07-25T00:45:58.773Z,5.90
2022-07-25T00:48:27.382Z,5.78
2022-07-25T00:50:55.262Z,6.10
2022-07-25T00:53:22.303Z,5.88
2022-07-25T00:55:49.010Z,6.07
2022-07-25T00:58:15.751Z,5.90
2022-07-25T01:00:42.598Z,5.72
2022-07-25T01:03:09.342Z,5.47
2022-07-25T01:05:36.098Z,5.72
2022-07-25T01:08:03.870Z,5.78
2022-07-25T01:10:33.014Z,5.15
2022-07-25T01:12:59.834Z,5.70
2022-07-25T01:15:27.311Z,5.53
2022-07-25T01:17:54.190Z,5.85
2022-07-25T01:20:29.103Z,6.25
2022-07-25T01:22:56.582Z,5.82
2022-07-25T01:25:23.997Z,6.07
2022-07-25T01:27:55.118Z,6.20
2022-07-25T01:30:24.553Z,6.18
2022-07-25T01:32:51.842Z,5.65
2022-07-25T01:35:18.761Z,5.53
2022-07-25T01:37:46.085Z,6.20
2022-07-25T01:40:13.785Z,5.90
2022-07-25T01:42:40.822Z,6.32
2022-07-25T01:45:08.264Z,5.70
2022-07-25T01:47:35.077Z,5.63
2022-07-25T01:50:02.045Z,5.90
2022-07-25T01:52:28.765Z,6.20
2022-07-25T01:54:55.784Z,4.95
2022-07-25T01:57:25.640Z,5.80
2022-07-25T01:59:57.575Z,5.85
2022-07-25T02:02:24.293Z,6.05
2022-07-25T02:04:50.990Z,5.90
2022-07-25T02:07:17.723Z,5.65
2022-07-25T02:09:44.442Z,6.03
2022-07-25T02:12:11.294Z,6.03
2022-07-25T02:14:37.986Z,6.22
2022-07-25T02:17:05.048Z,5.97
2022-07-25T02:19:31.858Z,6.05
2022-07-25T02:21:58.536Z,6.00
2022-07-25T02:24:25.262Z,6.07
2022-07-25T02:26:51.980Z,6.13
2022-07-25T02:29:18.712Z,6.32
2022-07-25T02:31:48.859Z,5.95
2022-07-25T02:34:15.927Z,6.13
2022-07-25T02:36:42.968Z,5.95
2022-07-25T02:39:09.721Z,6.20
2022-07-25T02:41:36.469Z,6.22
2022-07-25T02:44:03.812Z,6.15
2022-07-25T02:46:30.909Z,5.57
2022-07-25T02:48:57.747Z,5.35
2022-07-25T02:51:24.753Z,5.50
2022-07-25T02:53:57.825Z,6.20
2022-07-25T02:56:25.736Z,5.97
2022-07-25T02:58:52.427Z,5.70
2022-07-25T03:01:19.245Z,6.07
2022-07-25T03:03:46.078Z,6.20
2022-07-25T03:06:13.941Z,5.80
2022-07-25T03:08:40.602Z,5.88
2022-07-25T03:11:07.283Z,6.43
2022-07-25T03:13:34.070Z,9.20
2022-07-25T03:16:01.350Z,6.90
2022-07-25T03:18:28.043Z,8.73
2022-07-25T03:20:54.694Z,7.65
2022-07-25T03:23:21.438Z,7.55
2022-07-25T03:25:48.318Z,6.35
2022-07-25T03:28:14.954Z,5.75
2022-07-25T03:30:41.594Z,6.35
2022-07-25T03:33:08.485Z,6.40
2022-07-25T03:35:37.669Z,6.20
2022-07-25T03:38:04.354Z,6.07
2022-07-25T03:40:31.745Z,5.80
2022-07-25T03:42:58.478Z,6.43
2022-07-25T03:45:25.414Z,6.70
2022-07-25T03:47:52.151Z,5.70
2022-07-25T03:50:18.910Z,6.57
2022-07-25T03:52:45.624Z,6.30
2022-07-25T03:55:12.539Z,6.33
2022-07-25T03:57:39.583Z,6.82
2022-07-25T04:00:09.166Z,6.40
2022-07-25T04:02:37.620Z,6.60
2022-07-25T04:05:06.467Z,6.35
2022-07-25T04:07:33.481Z,6.20
2022-07-25T04:10:00.299Z,6.32
2022-07-25T04:12:27.037Z,6.07
2022-07-25T04:14:53.915Z,7.13
2022-07-25T04:17:20.647Z,6.45
2022-07-25T04:19:48.325Z,6.70
2022-07-25T04:22:15.774Z,6.95
2022-07-25T04:24:42.457Z,6.55
2022-07-25T04:27:09.117Z,6.50
2022-07-25T04:29:35.767Z,7.20
2022-07-25T04:32:02.480Z,6.88
2022-07-25T04:34:29.273Z,6.97
2022-07-25T04:36:55.914Z,6.38
2022-07-25T04:39:22.666Z,6.70
2022-07-25T04:41:49.330Z,6.68
2022-07-25T04:44:15.986Z,7.03
2022-07-25T04:46:42.637Z,6.72
2022-07-25T04:49:09.364Z,7.20
2022-07-25T04:51:36.181Z,7.28
2022-07-25T04:54:03.446Z,7.65
2022-07-25T04:56:30.324Z,7.55
2022-07-25T04:58:58.686Z,7.43
2022-07-25T05:01:28.520Z,8.15
2022-07-25T05:03:55.220Z,8.00
2022-07-25T05:06:21.928Z,8.18
2022-07-25T05:08:48.715Z,7.97
2022-07-25T05:11:15.447Z,8.85
2022-07-25T05:13:42.153Z,8.82
2022-07-25T05:16:09.389Z,8.52
2022-07-25T05:18:36.158Z,8.82
2022-07-25T05:21:03.089Z,8.38
2022-07-25T05:23:29.782Z,9.38
2022-07-25T05:25:56.486Z,9.55
2022-07-25T05:28:23.188Z,8.40
2022-07-25T05:30:49.854Z,7.65
2022-07-25T05:33:16.531Z,8.15
2022-07-25T05:35:43.239Z,8.25
2022-07-25T05:38:09.924Z,7.57
2022-07-25T05:40:36.576Z,7.85
2022-07-25T05:43:03.852Z,7.93
2022-07-25T05:45:31.325Z,8.30
2022-07-25T05:47:58.664Z,8.50
2022-07-25T05:50:27.982Z,8.48
2022-07-25T05:52:54.794Z,8.63
2022-07-25T05:55:21.486Z,7.80
2022-07-25T05:57:48.426Z,8.05
2022-07-25T06:00:15.552Z,7.82
2022-07-25T06:02:42.418Z,7.75
2022-07-25T06:05:09.399Z,7.25
2022-07-25T06:07:36.360Z,8.07
2022-07-25T06:10:07.775Z,7.90
2022-07-25T06:12:36.705Z,7.82
2022-07-25T06:15:04.795Z,7.65
2022-07-25T06:17:32.741Z,7.57
2022-07-25T06:19:59.794Z,7.97
2022-07-25T06:22:27.026Z,7.72
2022-07-25T06:24:53.701Z,8.30
2022-07-25T06:27:22.352Z,7.85
2022-07-25T06:29:51.683Z,7.25
2022-07-25T06:32:18.374Z,8.00
2022-07-25T06:34:45.042Z,8.13
2022-07-25T06:37:11.713Z,25.65
2022-07-25T06:39:41.393Z,8.88
2022-07-25T06:42:12.843Z,11.10
2022-07-25T06:44:39.670Z,7.95
2022-07-25T06:47:10.490Z,7.85
2022-07-25T06:49:37.356Z,7.90
2022-07-25T06:52:04.770Z,10.07
2022-07-25T06:54:31.820Z,7.93
2022-07-25T06:56:59.842Z,7.55
2022-07-25T06:59:26.893Z,6.88
2022-07-25T07:01:53.707Z,7.45
2022-07-25T07:04:20.513Z,7.30
2022-07-25T07:06:47.507Z,7.35
2022-07-25T07:09:14.308Z,7.47
2022-07-25T07:11:41.093Z,7.45
2022-07-25T07:14:08.152Z,8.05
2022-07-25T07:16:36.641Z,7.90
2022-07-25T07:19:04.357Z,7.82
2022-07-25T07:21:31.765Z,7.47
2022-07-25T07:23:58.547Z,7.28
2022-07-25T07:26:25.231Z,7.68
2022-07-25T07:28:54.610Z,7.80
2022-07-25T07:31:21.565Z,7.63
2022-07-25T07:33:53.716Z,7.15
2022-07-25T07:36:21.470Z,7.60
2022-07-25T07:38:48.794Z,7.70
2022-07-25T07:41:17.150Z,7.00
2022-07-25T07:43:43.797Z,7.88
2022-07-25T07:46:10.538Z,7.88
2022-07-25T07:48:38.474Z,7.63
2022-07-25T07:51:05.977Z,7.70
2022-07-25T07:53:51.673Z,7.90
2022-07-25T07:56:21.858Z,7.75
2022-07-25T07:58:51.635Z,8.13
2022-07-25T08:01:34.301Z,7.30
2022-07-25T08:04:01.532Z,7.43
2022-07-25T08:06:28.304Z,8.00
2022-07-25T08:08:55.027Z,7.65
2022-07-25T08:11:26.425Z,7.90
2022-07-25T08:13:53.181Z,7.68
2022-07-25T08:16:19.890Z,7.90
2022-07-25T08:18:46.840Z,7.88
2022-07-25T08:21:13.662Z,7.50
2022-07-25T08:23:41.289Z,7.68
2022-07-25T08:26:08.262Z,6.88
2022-07-25T08:28:34.933Z,8.43
2022-07-25T08:31:01.905Z,7.47
2022-07-25T08:33:28.746Z,7.78
2022-07-25T08:35:56.181Z,7.65
2022-07-25T08:38:24.300Z,7.75
2022-07-25T08:40:52.390Z,7.05
2022-07-25T08:43:19.857Z,7.53
2022-07-25T08:45:51.846Z,7.03
2022-07-25T08:48:21.761Z,7.60
2022-07-25T08:50:49.570Z,8.00
2022-07-25T08:53:36.385Z,7.50
2022-07-25T08:56:14.883Z,7.82
2022-07-25T08:58:49.625Z,7.82
2022-07-25T09:01:19.512Z,7.20
2022-07-25T09:03:46.847Z,7.90
2022-07-25T09:06:19.308Z,8.20
2022-07-25T09:09:15.892Z,7.65
2022-07-25T09:11:44.491Z,7.65
2022-07-25T09:14:14.749Z,8.23
2022-07-25T09:16:44.361Z,7.43
2022-07-25T09:19:15.005Z,6.95
2022-07-25T09:21:44.134Z,7.70
2022-07-25T09:24:17.523Z,7.53
2022-07-25T09:26:49.589Z,7.90
2022-07-25T09:29:30.011Z,7.63
2022-07-25T09:31:58.359Z,6.93
2022-07-25T09:34:36.692Z,7.90
2022-07-25T09:37:08.399Z,6.57
2022-07-25T09:39:50.387Z,6.50
2022-07-25T09:42:20.618Z,6.45
2022-07-25T09:45:07.221Z,6.35
2022-07-25T09:47:36.906Z,6.45
2022-07-25T09:50:07.177Z,6.05
2022-07-25T09:52:35.403Z,6.25
2022-07-25T09:55:07.706Z,6.03
2022-07-25T09:57:34.474Z,6.30
2022-07-25T10:00:01.635Z,5.30
2022-07-25T10:02:49.856Z,6.35
2022-07-25T10:05:21.091Z,6.00
2022-07-25T10:07:54.861Z,5.82
2022-07-25T10:10:38.167Z,5.28
2022-07-25T10:13:10.276Z,5.70
2022-07-25T10:15:53.950Z,4.43
2022-07-25T10:18:23.132Z,4.35
2022-07-25T10:20:52.252Z,4.45
2022-07-25T10:23:21.760Z,3.90
2022-07-25T10:26:19.474Z,4.28
2022-07-25T10:28:51.340Z,4.97
2022-07-25T10:31:22.333Z,3.72
2022-07-25T10:33:52.658Z,3.85
2022-07-25T10:36:20.880Z,4.25
2022-07-25T10:38:47.834Z,4.03
2022-07-25T10:41:16.672Z,4.18
2022-07-25T10:43:48.662Z,4.13
2022-07-25T10:46:19.526Z,3.55
2022-07-25T10:48:58.260Z,3.40
2022-07-25T10:51:31.158Z,3.92
2022-07-25T10:53:58.211Z,3.65
2022-07-25T10:56:28.060Z,3.40
2022-07-25T10:58:54.686Z,3.83
2022-07-25T11:04:00.359Z,3.90
2022-07-25T11:06:34.605Z,4.15
2022-07-25T11:09:02.129Z,4.25
2022-07-25T11:11:36.694Z,4.40
2022-07-25T11:14:05.212Z,4.70
2022-07-25T11:16:32.042Z,3.92
2022-07-25T11:18:58.888Z,4.50
2022-07-25T11:21:25.652Z,5.00
2022-07-25T11:23:53.040Z,4.60
2022-07-25T11:26:20.314Z,4.78
2022-07-25T11:28:48.817Z,4.30
2022-07-25T11:31:17.442Z,4.43
2022-07-25T11:33:48.315Z,4.22
2022-07-25T11:36:15.414Z,4.28
2022-07-25T11:38:46.896Z,4.35
2022-07-25T11:41:13.607Z,4.45
2022-07-25T11:43:48.792Z,4.30
2022-07-25T11:46:15.705Z,3.88
2022-07-25T11:48:42.909Z,3.80
2022-07-25T11:51:18.289Z,3.90
2022-07-25T11:53:48.475Z,3.42
2022-07-25T11:56:42.032Z,3.50
2022-07-25T11:59:10.684Z,3.33
2022-07-25T12:01:40.094Z,3.47
2022-07-25T12:04:11.470Z,3.08
2022-07-25T12:06:39.114Z,2.90
2022-07-25T12:09:20.796Z,3.30
2022-07-25T12:11:48.961Z,3.53
2022-07-25T12:14:19.594Z,3.05
2022-07-25T12:16:46.415Z,3.00
2022-07-25T12:19:21.674Z,3.00
2022-07-25T12:21:48.426Z,2.92
2022-07-25T12:24:15.134Z,2.47
2022-07-25T12:26:41.840Z,2.72
2022-07-25T12:29:08.846Z,3.00
2022-07-25T12:31:36.284Z,2.55
2022-07-25T12:34:03.537Z,2.70
2022-07-25T12:36:30.215Z,2.53
2022-07-25T12:38:56.875Z,2.40
2022-07-25T12:41:23.768Z,2.72
2022-07-25T12:43:50.426Z,3.00
2022-07-25T12:46:17.296Z,2.50
2022-07-25T12:48:44.242Z,2.47
2022-07-25T12:51:10.988Z,2.67
2022-07-25T12:53:42.061Z,2.17
2022-07-25T12:56:09.531Z,2.30
2022-07-25T12:58:37.482Z,2.28
2022-07-25T13:01:05.754Z,2.63
2022-07-25T13:03:32.582Z,2.42
2022-07-25T13:05:59.567Z,2.50
2022-07-25T13:08:26.364Z,2.53
2022-07-25T13:10:53.189Z,2.63
2022-07-25T13:13:19.869Z,2.42
2022-07-25T13:15:46.632Z,2.25
2022-07-25T13:18:13.364Z,2.60
2022-07-25T13:20:41.212Z,2.53
2022-07-25T13:23:08.157Z,2.70
2022-07-25T13:25:35.996Z,2.47
2022-07-25T13:28:04.142Z,3.20
2022-07-25T13:30:38.057Z,2.70
2022-07-25T13:33:04.800Z,2.70
2022-07-25T13:35:38.215Z,2.63
2022-07-25T13:38:07.674Z,2.67
2022-07-25T13:40:35.445Z,2.47
2022-07-25T13:43:02.162Z,2.40
2022-07-25T13:45:29.391Z,2.72
2022-07-25T13:48:18.957Z,2.40
2022-07-25T13:50:43.489Z,2.83
2022-07-25T13:53:10.296Z,2.20
2022-07-25T13:55:38.162Z,2.40
2022-07-25T13:58:05.031Z,2.30
2022-07-25T14:00:31.809Z,3.05
2022-07-25T14:02:58.699Z,2.45
2022-07-25T14:05:25.683Z,2.63
2022-07-25T14:07:52.438Z,2.30
2022-07-25T14:10:19.206Z,2.65
2022-07-25T14:12:46.462Z,2.80
2022-07-25T14:15:13.199Z,2.67
2022-07-25T14:17:40.258Z,2.60
2022-07-25T14:20:08.179Z,2.83
2022-07-25T14:22:35.451Z,2.75
2022-07-25T14:25:02.836Z,3.83
2022-07-25T14:27:29.664Z,3.03
2022-07-25T14:29:56.355Z,2.53
2022-07-25T14:32:23.048Z,2.72
2022-07-25T14:34:50.912Z,2.60
2022-07-25T14:37:18.272Z,2.67
2022-07-25T14:39:45.289Z,3.30
2022-07-25T14:42:14.557Z,2.53
2022-07-25T14:44:42.412Z,2.60
2022-07-25T14:47:12.569Z,2.90
2022-07-25T14:49:40.901Z,2.80
2022-07-25T14:52:07.815Z,2.92
2022-07-25T14:54:34.512Z,2.88
2022-07-25T14:57:02.165Z,2.70
2022-07-25T14:59:28.821Z,2.80
2022-07-25T15:01:55.473Z,2.40
2022-07-25T15:04:25.000Z,2.92
2022-07-25T15:06:52.735Z,2.70
2022-07-25T15:09:20.136Z,2.47
2022-07-25T15:11:47.264Z,2.80
2022-07-25T15:14:13.994Z,3.42
2022-07-25T15:16:40.921Z,3.20
2022-07-25T15:19:17.710Z,3.13
2022-07-25T15:21:45.657Z,3.10
2022-07-25T15:24:13.267Z,3.22
2022-07-25T15:26:40.195Z,2.90
2022-07-25T15:29:09.480Z,2.88
2022-07-25T15:31:37.021Z,2.70
2022-07-25T15:34:04.172Z,2.70
2022-07-25T15:36:30.915Z,3.03
2022-07-25T15:38:57.641Z,2.75
2022-07-25T15:41:24.432Z,2.78
2022-07-25T15:43:51.178Z,2.90
2022-07-25T15:46:18.153Z,2.90
2022-07-25T15:48:45.497Z,2.63
2022-07-25T15:51:16.692Z,2.80
2022-07-25T15:53:43.535Z,2.60
2022-07-25T15:56:10.823Z,2.63
2022-07-25T15:58:37.554Z,2.80
2022-07-25T16:01:04.383Z,2.80
2022-07-25T16:03:31.255Z,2.60
2022-07-25T16:05:58.870Z,2.70
2022-07-25T16:08:25.948Z,3.13
2022-07-25T16:10:52.922Z,2.80
2022-07-25T16:13:19.757Z,2.80
2022-07-25T16:15:46.634Z,2.70
2022-07-25T16:18:13.500Z,3.03
2022-07-25T16:20:40.218Z,3.00
2022-07-25T16:23:07.123Z,3.40
2022-07-25T16:25:33.829Z,3.60
2022-07-25T16:28:00.654Z,2.88
2022-07-25T16:30:28.625Z,2.72
2022-07-25T16:32:55.639Z,2.80
2022-07-25T16:35:22.540Z,2.65
2022-07-25T16:37:49.371Z,2.70
2022-07-25T16:40:16.333Z,2.90
2022-07-25T16:42:43.338Z,3.00
2022-07-25T16:45:10.780Z,2.88
2022-07-25T16:47:37.499Z,3.03
2022-07-25T16:50:04.606Z,2.78
2022-07-25T16:52:31.279Z,3.60
2022-07-25T16:54:57.982Z,3.20
2022-07-25T16:57:25.376Z,3.10
2022-07-25T16:59:53.602Z,3.13
2022-07-25T17:02:24.853Z,3.38
2022-07-25T17:04:54.777Z,2.78
2022-07-25T17:07:21.665Z,3.30
2022-07-25T17:09:48.445Z,2.50
2022-07-25T17:12:16.471Z,2.88
2022-07-25T17:14:43.698Z,2.80
2022-07-25T17:17:10.624Z,2.90
2022-07-25T17:19:39.804Z,2.78
2022-07-25T17:22:07.646Z,3.05
2022-07-25T17:24:34.722Z,2.83
2022-07-25T17:27:02.003Z,3.10
2022-07-25T17:29:28.787Z,2.83
2022-07-25T17:31:55.693Z,2.80
2022-07-25T17:34:22.631Z,2.60
2022-07-25T17:36:50.129Z,3.28
2022-07-25T17:39:17.212Z,3.13
2022-07-25T17:41:43.894Z,2.78
2022-07-25T17:44:12.197Z,2.70
2022-07-25T17:46:39.300Z,2.90
2022-07-25T17:49:06.158Z,2.75
2022-07-25T17:51:32.952Z,2.50
2022-07-25T17:53:59.660Z,2.60
2022-07-25T17:56:26.481Z,2.60
2022-07-25T17:58:53.236Z,2.58
2022-07-25T18:01:20.060Z,2.10
2022-07-25T18:03:47.619Z,2.30
2022-07-25T18:06:14.902Z,2.05
2022-07-25T18:08:41.681Z,2.25
2022-07-25T18:11:08.501Z,2.45
2022-07-25T18:13:35.410Z,2.00
2022-07-25T18:16:02.217Z,2.13
2022-07-25T18:18:29.423Z,2.40
2022-07-25T18:20:56.148Z,2.88
2022-07-25T18:23:24.188Z,2.40
2022-07-25T18:25:52.077Z,2.00
2022-07-25T18:28:19.185Z,2.10
2022-07-25T18:30:46.391Z,2.25
2022-07-25T18:33:15.194Z,2.17
2022-07-25T18:35:42.711Z,1.90
2022-07-25T18:38:11.518Z,2.13
2022-07-25T18:40:38.490Z,2.42
2022-07-25T18:43:08.153Z,2.03
2022-07-25T18:45:39.506Z,2.00
2022-07-25T18:48:06.670Z,1.90
2022-07-25T18:50:33.542Z,2.00
2022-07-25T18:53:00.335Z,2.13
2022-07-25T18:55:27.232Z,2.10
2022-07-25T18:57:54.118Z,1.70
2022-07-25T19:00:21.225Z,1.88
2022-07-25T19:02:48.210Z,1.65
2022-07-25T19:05:15.141Z,1.90
2022-07-25T19:07:42.237Z,1.98
2022-07-25T19:10:10.002Z,1.80
2022-07-25T19:12:37.358Z,1.50
2022-07-25T19:15:05.578Z,1.40
2022-07-25T19:17:37.632Z,1.45
2022-07-25T19:20:05.152Z,1.33
2022-07-25T19:22:31.919Z,1.23
2022-07-25T19:25:01.068Z,1.40
2022-07-25T19:27:28.974Z,1.30
2022-07-25T19:29:55.764Z,1.50
2022-07-25T19:32:22.552Z,1.40
2022-07-25T19:34:51.746Z,1.50
2022-07-25T19:37:18.461Z,1.20
2022-07-25T19:39:47.601Z,1.20
2022-07-25T19:42:14.474Z,1.15
2022-07-25T19:44:41.155Z,1.42
2022-07-25T19:47:11.676Z,1.65
2022-07-25T19:49:40.049Z,1.15
2022-07-25T19:52:11.216Z,1.58
2022-07-25T19:54:41.441Z,1.33
2022-07-25T19:57:08.273Z,1.20
2022-07-25T19:59:35.030Z,1.63
2022-07-25T20:02:03.191Z,1.52
2022-07-25T20:04:30.224Z,1.50
2022-07-25T20:06:57.059Z,1.40
2022-07-25T20:09:23.714Z,1.73
2022-07-25T20:11:50.444Z,1.55
2022-07-25T20:14:17.603Z,1.45
2022-07-25T20:16:45.431Z,1.65
2022-07-25T20:19:12.324Z,1.60
2022-07-25T20:21:40.285Z,1.35
2022-07-25T20:24:07.527Z,1.73
2022-07-25T20:26:34.646Z,1.10
2022-07-25T20:29:01.960Z,1.58
2022-07-25T20:31:29.676Z,1.52
2022-07-25T20:33:56.646Z,1.40
2022-07-25T20:36:23.320Z,1.48
2022-07-25T20:38:50.049Z,1.20
2022-07-25T20:41:16.777Z,1.50
2022-07-25T20:43:45.249Z,1.40
2022-07-25T20:46:11.988Z,1.15
2022-07-25T20:48:38.813Z,1.20
2022-07-25T20:51:05.673Z,1.17
2022-07-25T20:53:32.635Z,1.10
2022-07-25T20:55:59.414Z,1.40
2022-07-25T20:58:42.283Z,1.87
2022-07-25T21:01:09.092Z,1.45
2022-07-25T21:03:36.377Z,1.30
2022-07-25T21:06:03.262Z,1.38
2022-07-25T21:08:30.022Z,1.40
2022-07-25T21:10:58.756Z,1.08
2022-07-25T21:13:25.646Z,1.02
2022-07-25T21:15:57.695Z,1.30
2022-07-25T21:18:24.503Z,1.58
2022-07-25T21:20:51.220Z,1.33
2022-07-25T21:23:18.068Z,1.40
2022-07-25T21:25:45.630Z,1.77
2022-07-25T21:28:15.531Z,1.10
2022-07-25T21:30:42.935Z,1.00
2022-07-25T21:33:14.260Z,1.20
2022-07-25T21:35:46.795Z,1.08
2022-07-25T21:38:27.321Z,1.40
2022-07-25T21:40:56.529Z,1.40
2022-07-25T21:43:23.378Z,1.30
2022-07-25T21:45:50.324Z,1.20
2022-07-25T21:48:21.374Z,1.05
2022-07-25T21:50:50.564Z,1.00
2022-07-25T21:53:17.762Z,1.05
2022-07-25T21:55:44.433Z,1.20
2022-07-25T21:58:11.167Z,1.27
2022-07-25T22:00:44.626Z,1.33
2022-07-25T22:03:12.606Z,1.45
2022-07-25T22:05:39.405Z,1.30
2022-07-25T22:08:10.363Z,1.10
2022-07-25T22:10:37.026Z,1.20
2022-07-25T22:13:03.715Z,1.10
2022-07-25T22:15:30.467Z,1.27
2022-07-25T22:17:57.109Z,1.10
2022-07-25T22:20:24.959Z,1.13
2022-07-25T22:22:51.715Z,1.38
2022-07-25T22:25:18.405Z,1.48
2022-07-25T22:27:45.303Z,1.40
2022-07-25T22:30:18.244Z,1.23
2022-07-25T22:32:47.597Z,1.17
2022-07-25T22:35:15.420Z,1.38
2022-07-25T22:37:44.172Z,1.10
2022-07-25T22:40:11.735Z,1.30
2022-07-25T22:42:38.557Z,1.70
2022-07-25T22:45:05.946Z,1.40
2022-07-25T22:47:32.618Z,1.40
2022-07-25T22:49:59.299Z,1.38
2022-07-25T22:52:26.162Z,1.17
2022-07-25T22:54:52.896Z,1.25
2022-07-25T22:57:19.549Z,1.20
2022-07-25T22:59:49.209Z,1.38
2022-07-25T23:02:16.219Z,1.30
2022-07-25T23:04:42.918Z,1.55
2022-07-25T23:07:09.697Z,1.10
2022-07-25T23:09:36.681Z,1.25
2022-07-25T23:12:05.058Z,1.60
2022-07-25T23:14:31.844Z,1.33
2022-07-25T23:17:16.990Z,1.73
2022-07-25T23:19:54.535Z,1.45
2022-07-25T23:22:22.872Z,1.55
2022-07-25T23:24:49.699Z,1.30
2022-07-25T23:27:16.665Z,1.40
2022-07-25T23:29:43.582Z,1.40
2022-07-25T23:32:10.325Z,1.48
2022-07-25T23:34:37.088Z,1.50
2022-07-25T23:37:04.604Z,1.30
2022-07-25T23:39:31.933Z,1.60
2022-07-25T23:41:59.428Z,1.20
2022-07-25T23:44:26.398Z,1.48
2022-07-25T23:46:56.596Z,1.58
2022-07-25T23:49:24.226Z,1.33
2022-07-25T23:51:51.216Z,1.60
2022-07-25T23:54:18.046Z,1.60
2022-07-25T23:56:44.698Z,1.40
2022-07-25T23:59:11.675Z,1.90
